Etusivu
METAR-TAF:

METAR-TAF

Lentoasemat :

Sheldon Municipal Airport

Sheldon, Iowa, Yhdysvallat

Leveyspiiri: 43-13N, Pituuspiiri: 095-50W, korkeus merenpinnasta: 432 m

Tämänhetkinen sää

Tämä raportti tehtiin 18 minuuttia sitten, kello 20.15 UTC
Tuuli 7 kn lännestä/luoteesta
Lämpötila -2°C
Kosteus 80%
Ilmanpaine 1025 hPa
Näkyvyys: 16.1 km
Hajonneita pilviä 2600 ft:n korkeudessa
Hajonneita pilviä 3200 ft:n korkeudessa
Pilvistä 4100 ft:n korkeudessa

METAR: KSHL 262015Z AUTO 29007KT 10SM BKN026 BKN032 OVC041 M02/M05 A3026 RMK AO2

Aika: 14:33 (20:33 UTC)


TAF: puuttuu

Säähavainnot ja -ennusteet yli 4000 lentoasemalta (METAR- ja TAF-raportit).

Käytössä olevat sääasemat on merkitty karttaan keltaisilla ja punaisilla pisteillä.

Aseta hiiri pisteen päälle nähdäksesi sääaseman nimen.

Klikkaa sitten nähdäksesi säähavainnot ja -ennusteet.

Kartan vaihtaminen: klikkaa mustalla rastilla varustettuja vihreitä pisteitä, niin voit zoomata sisään; viivalla varustettua vihreää pistettä, niin voit zoomata ulos tai vihreitä nuolia, niin pääset viereisille kartoille.


METAR-TAF: